Date,TemperatureHighF,TemperatureAvgF,TemperatureLowF,DewpointHighF,DewpointAvgF,DewpointLowF,HumidityHigh,HumidityAvg,HumidityLow,PressureMaxIn,PressureMinIn,WindSpeedMaxMPH,WindSpeedAvgMPH,GustSpeedMaxMPH,PrecipitationSumIn
2013-1-1,26.0,12.5,-0.8,10.0,3.7,-9.0,78,68,47,30.83,30.62,13,2,24,0.00
2013-1-2,31.6,17.7,6.9,9.0,1.9,-7.0,67,51,30,30.81,30.70,10,4,14,0.00
2013-1-3,20.6,7.3,-0.4,4.0,-4.9,-10.0,72,58,35,30.91,30.80,8,2,8,0.00
2013-1-4,18.3,4.8,-4.3,4.0,-4.2,-12.0,74,67,50,30.91,30.80,6,2,9,0.00
2013-1-5,25.8,9.6,-0.8,8.0,-0.6,-8.0,78,64,45,30.93,30.82,11,3,17,0.01
2013-1-6,22.1,11.1,1.7,10.0,3.0,-4.0,78,70,56,30.84,30.53,8,2,12,0.00
2013-1-7,27.6,18.4,8.6,14.0,7.4,1.0,72,63,51,30.55,30.27,7,2,10,0.00
2013-1-8,42.8,26.9,17.7,18.0,13.1,9.0,71,58,33,30.56,30.27,9,3,11,0.00
2013-1-9,38.2,25.5,17.3,21.0,14.9,10.0,78,65,44,30.59,30.24,6,2,11,0.00
2013-1-10,37.0,28.1,15.6,22.0,16.9,10.0,83,64,46,30.22,29.66,32,5,45,0.01
2013-1-11,30.0,11.2,-1.4,21.0,5.5,-8.0,84,78,64,30.44,29.65,15,5,16,0.00
2013-1-12,6.5,-2.4,-10.3,-1.0,-9.2,-18.0,76,72,68,30.75,30.45,4,1,6,0.00
2013-1-13,8.1,-0.9,-10.5,1.0,-8.3,-19.0,75,71,60,30.82,30.74,7,2,11,0.00
2013-1-14,7.6,-4.2,-12.2,-3.0,-12.3,-20.0,74,68,60,30.91,30.77,5,1,8,0.00
2013-1-15,12.8,3.7,-5.2,4.0,-3.6,-12.0,83,72,64,30.96,30.86,7,2,12,0.00
2013-1-16,24.2,11.6,3.9,12.0,4.5,-1.0,82,74,57,30.99,30.87,5,2,8,0.05
2013-1-17,27.8,11.5,1.5,12.0,4.0,-5.0,82,72,46,31.10,30.82,13,2,15,0.00
2013-1-18,49.1,31.1,16.1,23.0,11.7,5.0,65,46,20,30.81,30.43,8,3,15,0.03
2013-1-19,45.8,31.5,21.9,18.0,7.1,1.0,54,37,17,30.52,30.44,9,3,13,0.00
2013-1-20,40.3,26.3,13.1,14.0,8.2,2.0,74,49,21,30.62,30.47,14,4,20,0.00
2013-1-21,49.2,30.4,16.7,17.0,10.2,4.0,69,45,21,30.61,30.41,10,3,17,0.00
2013-1-22,48.2,29.2,16.5,18.0,7.3,0.0,56,41,20,30.50,30.40,6,3,10,0.00
2013-1-23,47.4,33.5,25.0,20.0,12.0,5.0,59,42,19,30.49,30.34,9,2,15,0.00
2013-1-24,49.1,35.6,24.4,26.0,16.1,8.0,73,47,27,30.41,30.25,14,3,23,0.00
2013-1-25,48.0,32.3,22.1,20.0,14.8,10.0,65,51,26,30.42,30.32,8,3,11,0.00
2013-1-26,43.3,31.7,25.3,25.0,20.0,13.0,76,62,46,30.32,30.04,9,2,9,0.00
2013-1-27,40.8,32.7,25.3,28.0,23.4,18.0,80,69,52,30.02,29.83,19,4,24,0.00
2013-1-28,27.9,22.3,9.3,20.0,13.2,-2.0,84,69,43,30.15,29.96,8,2,14,0.01
2013-1-29,26.4,14.0,0.9,15.0,2.6,-7.0,84,62,28,30.53,30.13,11,3,17,0.00
2013-1-30,40.8,22.3,3.0,20.0,8.7,-6.0,73,57,29,30.48,30.28,21,3,25,0.07
2013-1-31,45.2,29.2,17.2,19.0,11.9,7.0,66,51,27,30.46,30.33,11,3,12,0.00